Time;durP1;ratioP1;P1;durP2;ratioP2;P2;SDS_P1;SDS_P2;PMS_P1;PMS_P2;Temp;Humidity;BMP_temperature;BMP_pressure;BME280_temperature;BME280_humidity;BME280_pressure;Samples;Min_cycle;Max_cycle;Signal;HPM_P1;HPM_P2
2021/10/05 00:02:14;241074.00;0.80;416.60;5040.00;0.02;9.35;;;;;18.60;1.00;;;;;;2264228;61;1387;-88
2021/10/05 00:04:41;149069.00;0.50;258.20;0.00;0.00;0.62;;;;;18.50;1.00;;;;;;2264376;61;1141;-87
2021/10/05 00:07:09;206144.00;0.69;356.50;0.00;0.00;0.62;;;;;18.40;1.00;;;;;;2257525;61;1097;-88
2021/10/05 00:09:37;207000.00;0.69;357.97;0.00;0.00;0.62;;;;;18.50;1.00;;;;;;2264507;61;902;-88
2021/10/05 00:12:04;269412.00;0.90;465.33;0.00;0.00;0.62;;;;;18.40;1.00;;;;;;2264346;61;1920;-88
2021/10/05 00:14:31;380022.00;1.27;655.46;0.00;0.00;0.62;;;;;18.10;1.00;;;;;;2264351;61;1030;-88
2021/10/05 00:16:58;436244.00;1.45;752.12;0.00;0.00;0.62;;;;;17.90;1.00;;;;;;2263049;61;935;-88
2021/10/05 00:19:26;491096.00;1.64;846.50;42584.00;0.14;74.36;;;;;17.90;1.00;;;;;;2264449;61;1122;-88
2021/10/05 00:21:53;133267.00;0.44;230.96;0.00;0.00;0.62;;;;;17.70;1.00;;;;;;2264492;61;1277;-87
2021/10/05 00:24:20;217609.00;0.73;376.23;0.00;0.00;0.62;;;;;17.20;1.00;;;;;;2264502;61;1122;-88
2021/10/05 00:26:47;408226.00;1.36;703.95;0.00;0.00;0.62;;;;;16.90;1.00;;;;;;2264421;61;1031;-88
2021/10/05 00:29:15;728114.00;2.43;1256.03;10821.00;0.04;19.37;;;;;16.90;1.20;;;;;;2264509;61;1720;-89
2021/10/05 00:31:42;409826.00;1.37;706.70;19652.00;0.07;34.67;;;;;16.60;3.00;;;;;;2264373;61;2006;-88
2021/10/05 00:34:09;564973.00;1.88;973.78;0.00;0.00;0.62;;;;;16.60;3.60;;;;;;2264181;61;1255;-88
2021/10/05 00:36:37;117712352.00;392.37;66069004.00;85105.00;0.28;147.85;;;;;16.60;3.10;;;;;;2264020;61;1058;-88
2021/10/05 00:39:04;623194.00;2.08;1074.29;0.00;0.00;0.62;;;;;16.30;3.80;;;;;;2263924;61;1062;-88
2021/10/05 00:41:31;740935.00;2.47;1278.30;69913.00;0.23;121.61;;;;;16.40;3.90;;;;;;2264357;61;1374;-88
2021/10/05 00:44:00;1005482.00;3.35;1742.18;13357.00;0.04;23.76;;;;;16.60;3.70;;;;;;2264382;61;1034;-88
2021/10/05 00:46:26;914114.00;3.05;1580.92;79178.00;0.26;137.62;;;;;16.90;3.90;;;;;;2264238;61;1099;-88
2021/10/05 00:48:53;1123464.00;3.74;1952.44;53310.00;0.18;92.91;;;;;17.20;2.60;;;;;;2264099;61;1072;-88
2021/10/05 00:51:20;853342.00;2.84;1474.32;35726.00;0.12;62.49;;;;;16.90;1.80;;;;;;2264077;61;2013;-88
2021/10/05 00:53:49;1069479.00;3.56;1855.93;99148.00;0.33;172.10;;;;;16.40;3.40;;;;;;2263865;61;1144;-88
2021/10/05 00:56:16;1429239.00;4.76;2510.66;141671.00;0.47;245.45;;;;;15.90;4.90;;;;;;2264115;61;1171;-88
2021/10/05 00:58:44;904390.00;3.01;1563.83;63271.00;0.21;110.13;;;;;15.80;5.50;;;;;;2253845;61;1110;-87
2021/10/05 01:01:10;1072473.00;3.57;1861.27;121194.00;0.40;210.14;;;;;15.60;7.30;;;;;;2264343;61;1388;-88
2021/10/05 01:03:37;765161.00;2.55;1320.43;100127.00;0.33;173.79;;;;;15.50;6.70;;;;;;2264858;61;1221;-88
2021/10/05 01:06:04;916767.00;3.06;1585.59;31836.00;0.11;55.76;;;;;15.60;8.00;;;;;;2264999;61;1127;-88
2021/10/05 01:08:32;805846.00;2.69;1391.32;31143.00;0.10;54.56;;;;;15.50;7.70;;;;;;2264764;61;1113;-88
2021/10/05 01:11:01;807643.00;2.69;1394.46;11881.00;0.04;21.21;;;;;15.20;9.00;;;;;;2262823;61;1310;-88
2021/10/05 01:13:28;805500.00;2.68;1390.72;29052.00;0.10;50.94;;;;;15.20;8.90;;;;;;2263359;61;2021;-87
2021/10/05 01:15:55;891896.00;2.97;1541.89;27710.00;0.09;48.62;;;;;15.40;8.20;;;;;;2264195;61;1102;-88
2021/10/05 01:18:22;980196.00;3.27;1697.43;13930.00;0.05;24.76;;;;;15.70;7.70;;;;;;2264056;61;1111;-88
2021/10/05 01:20:54;769254.00;2.56;1327.55;19197.00;0.06;33.88;;;;;15.70;8.10;;;;;;2264267;61;1661;-87
2021/10/05 01:23:22;1234440.00;4.11;2152.61;213355.00;0.71;368.91;;;;;15.70;8.40;;;;;;2264419;61;1194;-87
2021/10/05 01:25:50;977383.00;3.26;1692.46;187415.00;0.62;324.26;;;;;15.70;8.50;;;;;;2264512;61;1119;-89
2021/10/05 01:28:19;852375.00;2.84;1472.62;80023.00;0.27;139.08;;;;;15.80;7.50;;;;;;2264565;61;1165;-88
2021/10/05 01:30:46;842400.00;2.81;1455.17;50835.00;0.17;88.63;;;;;16.00;7.10;;;;;;2264955;61;1430;-88
2021/10/05 01:33:13;1011845.00;3.37;1753.46;119683.00;0.40;207.54;;;;;16.30;6.50;;;;;;2264938;61;2005;-88
2021/10/05 01:35:40;1317060.00;4.39;2303.36;168168.00;0.56;291.11;;;;;16.40;6.20;;;;;;2264690;61;1669;-88
2021/10/05 01:38:09;1310405.00;4.37;2291.16;113302.00;0.38;196.53;;;;;16.30;5.40;;;;;;2265031;61;990;-88
2021/10/05 01:40:36;1886521.00;6.29;3393.86;194429.00;0.65;336.33;;;;;15.80;7.60;;;;;;2264958;61;916;-88
2021/10/05 01:43:03;118657064.00;395.52;67674000.00;74704.00;0.25;129.89;;;;;16.50;9.20;;;;;;2264950;61;1404;-88
2021/10/05 01:45:30;1624836.00;5.42;2880.30;160450.00;0.53;277.81;;;;;17.10;5.40;;;;;;2264996;61;1034;-87
2021/10/05 01:47:57;1288503.00;4.30;2251.08;192680.00;0.64;333.32;;;;;17.60;4.50;;;;;;2264919;61;1115;-88
2021/10/05 01:50:27;117916800.00;393.06;66414168.00;123423.00;0.41;213.99;;;;;17.80;4.20;;;;;;2264842;61;1156;-88
2021/10/05 01:52:54;1156081.00;3.85;2011.01;135457.00;0.45;234.74;;;;;17.90;3.00;;;;;;2264883;61;2001;-88
2021/10/05 01:55:23;382469.00;1.27;659.67;81576.00;0.27;141.76;;;;;18.30;1.80;;;;;;2264812;61;1461;-88
2021/10/05 01:57:50;336096.00;1.12;579.96;79659.00;0.27;138.45;;;;;18.40;2.00;;;;;;2264929;61;1061;-88
2021/10/05 02:00:18;510998.00;1.70;880.76;73754.00;0.25;128.25;;;;;18.60;1.60;;;;;;2264935;61;1131;-88
2021/10/05 02:02:45;427674.00;1.43;737.39;87224.00;0.29;151.51;;;;;18.70;1.50;;;;;;2264906;61;1404;-88
2021/10/05 02:05:12;231591.00;0.77;400.29;0.00;0.00;0.62;;;;;18.70;1.00;;;;;;2264865;61;1095;-88
2021/10/05 02:07:39;423439.00;1.41;730.10;0.00;0.00;0.62;;;;;18.70;1.50;;;;;;2264851;61;1104;-88
2021/10/05 02:10:08;229217.00;0.76;396.20;0.00;0.00;0.62;;;;;18.60;1.00;;;;;;2264742;61;901;-88
2021/10/05 02:12:37;479676.00;1.60;826.84;54688.00;0.18;95.29;;;;;18.60;1.00;;;;;;2264794;61;1996;-88
2021/10/05 02:15:06;211819.00;0.71;366.27;0.00;0.00;0.62;;;;;18.10;1.00;;;;;;2264819;61;1002;-88
2021/10/05 02:17:33;143989.00;0.48;249.45;0.00;0.00;0.62;;;;;17.90;2.90;;;;;;2264798;61;1086;-88
2021/10/05 02:20:00;299762.00;1.00;517.51;0.00;0.00;0.62;;;;;18.10;1.50;;;;;;2263376;61;1228;-88
2021/10/05 02:22:27;255143.00;0.85;440.80;0.00;0.00;0.62;;;;;17.90;1.70;;;;;;2264731;61;1384;-87
2021/10/05 02:24:53;178556.00;0.60;309.00;0.00;0.00;0.62;;;;;18.00;2.30;;;;;;2264517;61;1141;-88
2021/10/05 02:27:22;340026.00;1.13;586.72;24979.00;0.08;43.89;;;;;17.80;1.40;;;;;;2264576;61;952;-88
2021/10/05 02:29:52;1152468.00;3.84;2004.51;76900.00;0.26;133.68;;;;;17.80;2.00;;;;;;2264667;61;1117;-87
2021/10/05 02:32:19;970195.00;3.23;1679.75;39477.00;0.13;68.98;;;;;17.90;3.00;;;;;;2263941;61;1924;-86
2021/10/05 02:34:46;703195.00;2.34;1212.78;15199.00;0.05;26.96;;;;;18.00;1.20;;;;;;2261813;61;1156;-86
2021/10/05 02:37:13;702050.00;2.34;1210.79;3334.00;0.01;6.40;;;;;17.90;1.10;;;;;;2261494;61;1097;-86
2021/10/05 02:39:40;666273.00;2.22;1148.80;0.00;0.00;0.62;;;;;17.90;2.70;;;;;;2260519;61;1135;-87
2021/10/05 02:42:08;616776.00;2.06;1063.20;0.00;0.00;0.62;;;;;18.10;2.10;;;;;;2261019;61;1264;-86
2021/10/05 02:44:36;600491.00;2.00;1035.07;0.00;0.00;0.62;;;;;18.40;2.70;;;;;;2261352;61;1021;-87
2021/10/05 02:47:05;531970.00;1.77;916.89;13495.00;0.04;24.00;;;;;18.60;2.10;;;;;;2262412;61;1124;-87
2021/10/05 02:49:32;591978.00;1.97;1020.37;0.00;0.00;0.62;;;;;18.70;1.10;;;;;;2263498;61;1079;-86
2021/10/05 02:51:59;453423.00;1.51;781.67;0.00;0.00;0.62;;;;;18.70;1.00;;;;;;2262496;61;1927;-86
2021/10/05 02:54:26;651152.00;2.17;1122.63;9508.00;0.03;17.10;;;;;19.00;1.00;;;;;;2257002;61;1090;-86
2021/10/05 02:56:53;541127.00;1.80;932.67;0.00;0.00;0.62;;;;;19.20;1.00;;;;;;2260901;61;1082;-86
2021/10/05 02:59:20;689951.00;2.30;1189.82;13878.00;0.05;24.67;;;;;19.30;1.00;;;;;;2257016;61;1290;-86
2021/10/05 03:01:47;862581.00;2.88;1490.49;115175.00;0.38;199.76;;;;;19.40;1.00;;;;;;2261067;61;1357;-87
2021/10/05 03:04:15;700477.00;2.33;1208.07;80160.00;0.27;139.31;;;;;19.50;1.00;;;;;;2254131;61;1276;-87
2021/10/05 03:06:42;790596.00;2.64;1364.73;69865.00;0.23;121.53;;;;;19.40;1.00;;;;;;2261185;61;1117;-86
2021/10/05 03:09:09;655901.00;2.19;1130.85;94481.00;0.31;164.04;;;;;19.40;1.00;;;;;;2261930;61;1104;-87
2021/10/05 03:11:36;657411.00;2.19;1133.46;92975.00;0.31;161.44;;;;;19.30;1.00;;;;;;2261984;61;1306;-87
2021/10/05 03:14:03;607681.00;2.03;1047.48;123771.00;0.41;214.59;;;;;19.10;1.00;;;;;;2261568;61;1938;-87
2021/10/05 03:16:31;723348.00;2.41;1247.75;96113.00;0.32;166.86;;;;;19.00;1.00;;;;;;2261480;61;1175;-87
2021/10/05 03:18:57;819203.00;2.73;1414.63;76242.00;0.25;132.55;;;;;18.80;1.00;;;;;;2254476;61;1286;-87
2021/10/05 03:21:26;592531.00;1.98;1021.33;86211.00;0.29;149.76;;;;;18.70;1.30;;;;;;2262279;61;1344;-87
2021/10/05 03:23:53;675687.00;2.25;1165.10;91192.00;0.30;158.37;;;;;18.80;1.40;;;;;;2261644;61;1158;-87
2021/10/05 03:26:20;727168.00;2.42;1254.38;77564.00;0.26;134.83;;;;;18.90;1.00;;;;;;2254014;61;1260;-87
2021/10/05 03:28:47;616867.00;2.06;1063.35;91770.00;0.31;159.36;;;;;18.90;1.00;;;;;;2253709;61;1218;-87
2021/10/05 03:31:15;937366.00;3.12;1621.84;92642.00;0.31;160.87;;;;;19.00;1.00;;;;;;2260485;61;1317;-87
2021/10/05 03:33:44;805598.00;2.69;1390.89;101533.00;0.34;176.22;;;;;19.10;1.00;;;;;;2260353;61;2006;-86
2021/10/05 03:36:12;709829.00;2.37;1224.29;106157.00;0.35;184.20;;;;;19.20;1.00;;;;;;2260339;61;1173;-87
2021/10/05 03:38:42;573336.00;1.91;988.20;78134.00;0.26;135.81;;;;;19.10;1.00;;;;;;2260366;61;1176;-86
2021/10/05 03:41:10;580999.00;1.94;1001.42;22110.00;0.07;38.92;;;;;19.30;1.00;;;;;;2260231;61;1258;-87
2021/10/05 03:43:38;792692.00;2.64;1368.38;14178.00;0.05;25.19;;;;;19.30;1.00;;;;;;2260619;61;1199;-87
2021/10/05 03:46:06;628237.00;2.09;1083.00;6447.00;0.02;11.79;;;;;19.20;1.00;;;;;;2259818;61;1243;-86
2021/10/05 03:48:33;590919.00;1.97;1018.54;10541.00;0.04;18.89;;;;;19.10;1.00;;;;;;2260682;61;1217;-87
2021/10/05 03:51:00;521024.00;1.74;898.03;0.00;0.00;0.62;;;;;19.10;1.00;;;;;;2261025;61;1363;-88
2021/10/05 03:53:27;505152.00;1.68;870.69;18683.00;0.06;32.99;;;;;19.00;1.00;;;;;;2260747;61;2003;-87
2021/10/05 03:55:57;472566.00;1.58;814.60;18809.00;0.06;33.21;;;;;19.00;1.00;;;;;;2253445;61;1058;-86
2021/10/05 03:58:25;482661.00;1.61;831.98;0.00;0.00;0.62;;;;;18.90;1.00;;;;;;2260911;61;1116;-86
2021/10/05 04:00:53;437649.00;1.46;754.54;0.00;0.00;0.62;;;;;18.90;1.00;;;;;;2260391;61;1413;-87
2021/10/05 04:03:22;367984.00;1.23;634.77;0.00;0.00;0.62;;;;;18.90;1.00;;;;;;2260785;61;1050;-87
2021/10/05 04:05:50;423806.00;1.41;730.73;11487.00;0.04;20.53;;;;;19.20;1.00;;;;;;2260595;61;1165;-86
2021/10/05 04:08:17;857563.00;2.86;1481.71;56132.00;0.19;97.79;;;;;19.20;1.00;;;;;;2260777;61;1141;-87
2021/10/05 04:10:44;493044.00;1.64;849.85;10235.00;0.03;18.36;;;;;19.40;1.00;;;;;;2260465;61;1261;-87
2021/10/05 04:13:12;527090.00;1.76;908.48;0.00;0.00;0.62;;;;;19.40;1.00;;;;;;2260199;61;1996;-87
2021/10/05 04:15:39;542097.00;1.81;934.34;0.00;0.00;0.62;;;;;19.40;1.00;;;;;;2260999;61;1161;-87
2021/10/05 04:18:06;536083.00;1.79;923.97;4816.00;0.02;8.97;;;;;19.20;1.00;;;;;;2261430;61;1177;-87
2021/10/05 04:20:33;583407.00;1.94;1005.58;22924.00;0.08;40.33;;;;;19.10;1.00;;;;;;2263674;61;1128;-90
2021/10/05 04:23:00;517354.00;1.72;891.71;0.00;0.00;0.62;;;;;19.00;1.00;;;;;;2251197;61;1313;-87
2021/10/05 04:25:27;912765.00;3.04;1578.55;18044.00;0.06;31.88;;;;;18.70;1.00;;;;;;2246023;61;1194;-87
2021/10/05 04:27:54;645804.00;2.15;1113.38;17726.00;0.06;31.33;;;;;18.30;1.00;;;;;;2248904;61;1118;-87
2021/10/05 04:30:23;425218.00;1.42;733.16;149.00;0.00;0.88;;;;;18.50;1.80;;;;;;2248523;61;1170;-87
2021/10/05 04:32:50;624530.00;2.08;1076.59;0.00;0.00;0.62;;;;;18.50;1.80;;;;;;2248293;61;1935;-87
2021/10/05 04:35:16;455222.00;1.52;784.77;0.00;0.00;0.62;;;;;18.70;1.00;;;;;;2248243;61;1099;-87
2021/10/05 04:37:43;474835.00;1.58;818.51;12740.00;0.04;22.70;;;;;18.50;1.00;;;;;;2247923;61;1161;-87
2021/10/05 04:40:11;664665.00;2.22;1146.02;0.00;0.00;0.62;;;;;18.60;1.00;;;;;;2249809;61;1157;-86
2021/10/05 04:42:38;503665.00;1.68;868.13;4373.00;0.01;8.20;;;;;18.70;1.00;;;;;;2261185;61;1431;-87
2021/10/05 04:45:06;418345.00;1.39;721.34;25725.00;0.09;45.18;;;;;18.90;1.10;;;;;;2260537;61;1250;-86
2021/10/05 04:47:36;536799.00;1.79;925.21;0.00;0.00;0.62;;;;;19.00;1.30;;;;;;2260333;61;1157;-87
2021/10/05 04:50:04;472776.00;1.58;814.97;12754.00;0.04;22.72;;;;;18.90;1.00;;;;;;2260413;61;1106;-87
2021/10/05 04:52:31;575823.00;1.92;992.49;0.00;0.00;0.62;;;;;18.80;1.00;;;;;;2260284;61;2009;-86
2021/10/05 04:54:58;661956.00;2.21;1141.33;5707.00;0.02;10.51;;;;;19.20;1.00;;;;;;2260062;61;1160;-86
2021/10/05 04:57:25;512799.00;1.71;883.86;0.00;0.00;0.62;;;;;19.40;1.00;;;;;;2260364;61;1251;-86
2021/10/05 04:59:52;383318.00;1.28;661.13;0.00;0.00;0.62;;;;;19.00;1.00;;;;;;2264342;61;1071;-88
2021/10/05 05:02:19;653768.00;2.18;1127.16;0.00;0.00;0.62;;;;;19.00;1.00;;;;;;2260720;61;1250;-86
2021/10/05 05:04:47;117456600.00;391.52;65638920.00;22927.00;0.08;40.34;;;;;19.20;1.00;;;;;;2259724;61;1160;-86
2021/10/05 05:07:14;648981.00;2.16;1118.87;5558.00;0.02;10.25;;;;;19.50;1.00;;;;;;2259401;61;1154;-86
2021/10/05 05:09:41;482180.00;1.61;831.15;0.00;0.00;0.62;;;;;19.70;1.00;;;;;;2259610;61;1165;-86
2021/10/05 05:12:08;1310424.00;4.37;2291.20;71839.00;0.24;124.94;;;;;19.50;1.00;;;;;;2260250;61;1392;-87
2021/10/05 05:14:35;485461.00;1.62;836.80;0.00;0.00;0.62;;;;;19.60;1.00;;;;;;2255760;61;2015;-87
2021/10/05 05:17:02;633986.00;2.11;1092.94;15002.00;0.05;26.61;;;;;19.70;1.00;;;;;;2258963;61;1111;-87
2021/10/05 05:19:29;365175.00;1.22;629.94;0.00;0.00;0.62;;;;;19.70;1.00;;;;;;2252176;61;1176;-88
2021/10/05 05:21:59;366078.00;1.22;631.50;0.00;0.00;0.62;;;;;19.70;1.00;;;;;;2255534;61;1463;-88
2021/10/05 05:24:27;278017.00;0.93;480.13;0.00;0.00;0.62;;;;;19.80;1.00;;;;;;2255132;61;1260;-87
2021/10/05 05:26:54;471375.00;1.57;812.56;0.00;0.00;0.62;;;;;19.70;1.00;;;;;;2254848;61;1125;-87
2021/10/05 05:29:21;562339.00;1.87;969.23;0.00;0.00;0.62;;;;;19.50;1.00;;;;;;2262266;61;1121;-87
2021/10/05 05:31:49;412766.00;1.38;711.75;0.00;0.00;0.62;;;;;19.30;1.00;;;;;;2262154;61;1362;-88
2021/10/05 05:34:16;779065.00;2.60;1344.64;0.00;0.00;0.62;;;;;18.90;1.00;;;;;;2261900;61;1923;-88
2021/10/05 05:36:43;368095.00;1.23;634.96;0.00;0.00;0.62;;;;;18.90;1.00;;;;;;2262983;61;1201;-88
2021/10/05 05:39:11;741373.00;2.47;1279.06;0.00;0.00;0.62;;;;;18.60;1.00;;;;;;2260175;61;1003;-88
2021/10/05 05:41:38;677506.00;2.26;1168.25;0.00;0.00;0.62;;;;;18.90;1.00;;;;;;2261862;61;1440;-89
2021/10/05 05:44:05;444519.00;1.48;766.36;0.00;0.00;0.62;;;;;19.20;1.00;;;;;;2261271;61;1602;-88
2021/10/05 05:46:32;485795.00;1.62;837.37;1636.00;0.01;3.46;;;;;19.20;1.00;;;;;;2254637;61;1161;-87
2021/10/05 05:48:59;480549.00;1.60;828.34;0.00;0.00;0.62;;;;;19.20;1.00;;;;;;2261634;61;1160;-88
2021/10/05 05:51:26;1005879.00;3.35;1742.89;40008.00;0.13;69.90;;;;;18.80;1.00;;;;;;2262179;61;1263;-88
2021/10/05 05:53:53;707975.00;2.36;1221.07;17975.00;0.06;31.76;;;;;18.90;1.00;;;;;;2262444;61;2008;-87
2021/10/05 05:56:21;733704.00;2.45;1265.74;0.00;0.00;0.62;;;;;19.00;1.00;;;;;;2262966;61;1149;-88
2021/10/05 05:58:55;703206.00;2.34;1212.80;0.00;0.00;0.62;;;;;19.00;1.00;;;;;;2262703;61;1048;-88
2021/10/05 06:01:22;556678.00;1.86;959.47;22031.00;0.07;38.79;;;;;18.80;1.00;;;;;;2262276;61;1428;-87
2021/10/05 06:03:50;812227.00;2.71;1402.46;54546.00;0.18;95.05;;;;;18.70;1.00;;;;;;2255600;61;1189;-88
2021/10/05 06:06:18;698946.00;2.33;1205.41;37919.00;0.13;66.29;;;;;18.70;1.00;;;;;;2255355;61;1253;-87
2021/10/05 06:08:45;513996.00;1.71;885.92;0.00;0.00;0.62;;;;;18.90;1.10;;;;;;2262053;61;1070;-88
2021/10/05 06:11:12;800080.00;2.67;1381.26;78088.00;0.26;135.73;;;;;19.20;1.00;;;;;;2257847;61;1413;-87
2021/10/05 06:13:40;716955.00;2.39;1236.65;45744.00;0.15;79.83;;;;;19.50;1.00;;;;;;2255571;61;1993;-88
2021/10/05 06:16:07;800584.00;2.67;1382.14;21823.00;0.07;38.43;;;;;19.70;1.00;;;;;;2262684;61;1192;-88
2021/10/05 06:18:34;904837.00;3.02;1564.62;12838.00;0.04;22.87;;;;;19.20;1.00;;;;;;2261651;61;1789;-87
2021/10/05 06:21:01;1007183.00;3.36;1745.20;137748.00;0.46;238.69;;;;;19.10;1.00;;;;;;2252008;61;1320;-88
2021/10/05 06:23:28;807382.00;2.69;1394.00;23715.00;0.08;41.70;;;;;18.90;1.00;;;;;;2250013;61;1070;-88
2021/10/05 06:25:56;818530.00;2.73;1413.46;71040.00;0.24;123.56;;;;;18.90;1.00;;;;;;2246179;61;1161;-87
2021/10/05 06:28:23;646976.00;2.16;1115.40;28599.00;0.10;50.16;;;;;18.80;1.00;;;;;;2249319;61;1170;-87
2021/10/05 06:30:52;687501.00;2.29;1185.57;0.00;0.00;0.62;;;;;19.20;1.00;;;;;;2249473;61;1500;-89
2021/10/05 06:33:19;719388.00;2.40;1240.88;11989.00;0.04;21.39;;;;;19.50;1.00;;;;;;2249746;61;1995;-88
2021/10/05 06:35:46;455397.00;1.52;785.07;0.00;0.00;0.62;;;;;19.70;1.00;;;;;;2239004;61;1131;-87
2021/10/05 06:38:14;652824.00;2.18;1125.52;97261.00;0.32;168.84;;;;;19.90;1.00;;;;;;2249261;61;1006;-87
2021/10/05 06:40:42;405295.00;1.35;698.91;0.00;0.00;0.62;;;;;19.90;1.00;;;;;;2243970;61;1162;-88
2021/10/05 06:43:10;576400.00;1.92;993.49;0.00;0.00;0.62;;;;;19.70;1.00;;;;;;2261075;61;1075;-87
2021/10/05 06:45:38;598672.00;2.00;1031.93;0.00;0.00;0.62;;;;;19.30;1.00;;;;;;2260950;61;1168;-87
2021/10/05 06:48:07;444023.00;1.48;765.50;0.00;0.00;0.62;;;;;19.00;1.00;;;;;;2255597;61;1280;-87
2021/10/05 06:50:35;436700.00;1.46;752.91;0.00;0.00;0.62;;;;;18.40;1.00;;;;;;2260812;61;1165;-87
2021/10/05 06:53:02;459759.00;1.53;792.57;0.00;0.00;0.62;;;;;18.30;1.40;;;;;;2261253;61;1216;-87
2021/10/05 06:55:30;611986.00;2.04;1054.92;0.00;0.00;0.62;;;;;18.50;2.60;;;;;;2260871;61;1168;-87
2021/10/05 06:57:58;610000.00;2.03;1051.49;0.00;0.00;0.62;;;;;18.10;1.00;;;;;;2261022;61;1232;-87
2021/10/05 07:00:25;524961.00;1.75;904.81;0.00;0.00;0.62;;;;;18.00;1.00;;;;;;2261087;61;1089;-87
2021/10/05 07:02:52;438350.00;1.46;755.75;0.00;0.00;0.62;;;;;18.10;1.00;;;;;;2262085;61;1469;-87
2021/10/05 07:05:22;534912.00;1.78;921.96;0.00;0.00;0.62;;;;;18.30;1.00;;;;;;2260097;61;1226;-87
2021/10/05 07:07:50;517138.00;1.72;891.34;0.00;0.00;0.62;;;;;18.30;1.00;;;;;;2263986;61;1218;-87
2021/10/05 07:16:09;217809.00;0.73;376.57;0.00;0.00;0.62;;;;;18.40;1.00;;;;;;2272233;61;1173;-88
2021/10/05 07:18:35;189764.00;0.63;328.30;0.00;0.00;0.62;;;;;18.40;1.00;;;;;;2272091;61;1097;-88
2021/10/05 07:21:04;188496.00;0.63;326.12;0.00;0.00;0.62;;;;;18.70;1.00;;;;;;2270595;61;1384;-87
2021/10/05 07:23:31;129923.00;0.43;225.20;0.00;0.00;0.62;;;;;18.80;1.00;;;;;;2271848;61;1223;-87
2021/10/05 07:25:58;219412.00;0.73;379.33;0.00;0.00;0.62;;;;;18.70;1.00;;;;;;2271878;61;1134;-88
2021/10/05 07:28:25;247440.00;0.82;427.55;0.00;0.00;0.62;;;;;18.90;1.00;;;;;;2271096;61;1054;-87
2021/10/05 07:30:52;146158.00;0.49;253.19;0.00;0.00;0.62;;;;;19.10;1.00;;;;;;2259578;61;1400;-88
2021/10/05 07:33:23;209629.00;0.70;362.50;0.00;0.00;0.62;;;;;19.20;1.00;;;;;;2270402;61;2002;-87
2021/10/05 07:35:50;178899.00;0.60;309.59;0.00;0.00;0.62;;;;;19.30;1.00;;;;;;2270606;61;1284;-89
2021/10/05 07:38:18;173572.00;0.58;300.42;0.00;0.00;0.62;;;;;19.30;1.00;;;;;;2267344;61;1178;-88
2021/10/05 07:40:45;191761.00;0.64;331.74;0.00;0.00;0.62;;;;;19.50;1.00;;;;;;2272006;61;1439;-88
2021/10/05 07:43:12;275855.00;0.92;476.41;0.00;0.00;0.62;;;;;19.70;1.00;;;;;;2271691;61;1140;-88
2021/10/05 07:45:39;107548.00;0.36;186.60;0.00;0.00;0.62;;;;;20.00;1.00;;;;;;2270909;61;1165;-88
2021/10/05 07:48:07;248654.00;0.83;429.64;537.00;0.00;1.55;;;;;19.70;1.00;;;;;;2271583;61;1145;-90
2021/10/05 07:50:35;142206.00;0.47;246.37;0.00;0.00;0.62;;;;;19.30;1.00;;;;;;2261167;61;1036;-88
2021/10/05 07:53:04;270206.00;0.90;466.70;0.00;0.00;0.62;;;;;18.80;1.00;;;;;;2261196;61;1472;-88
2021/10/05 07:55:33;383075.00;1.28;660.71;0.00;0.00;0.62;;;;;18.80;1.00;;;;;;2271256;61;1947;-87
2021/10/05 07:58:01;258014.00;0.86;445.73;0.00;0.00;0.62;;;;;19.00;1.00;;;;;;2264134;61;1122;-88
2021/10/05 08:00:28;207405.00;0.69;358.67;0.00;0.00;0.62;;;;;18.90;1.00;;;;;;2261011;61;1122;-88
2021/10/05 08:02:56;317638.00;1.06;548.24;42730.00;0.14;74.61;;;;;19.30;1.00;;;;;;2271851;61;1411;-88
2021/10/05 08:05:23;177567.00;0.59;307.30;0.00;0.00;0.62;;;;;19.60;1.00;;;;;;2269915;61;1231;-87
2021/10/05 08:07:59;119322.00;0.40;206.91;0.00;0.00;0.62;;;;;20.00;1.00;;;;;;2270154;61;1201;-88
2021/10/05 08:10:26;226258.00;0.75;391.11;0.00;0.00;0.62;;;;;20.20;1.00;;;;;;2263242;61;1176;-88
2021/10/05 08:12:54;173455.00;0.58;300.22;0.00;0.00;0.62;;;;;20.00;1.00;;;;;;2271724;61;1345;-89
2021/10/05 08:15:21;213006.00;0.71;368.31;0.00;0.00;0.62;;;;;20.20;1.00;;;;;;2272191;61;1994;-89
2021/10/05 08:17:48;143911.00;0.48;249.31;0.00;0.00;0.62;;;;;20.60;1.00;;;;;;2261880;61;1015;-91
2021/10/05 08:20:15;183313.00;0.61;317.19;0.00;0.00;0.62;;;;;20.90;1.00;;;;;;2268585;61;993;-90
2021/10/05 08:22:42;302445.00;1.01;522.12;22117.00;0.07;38.94;;;;;20.90;1.00;;;;;;2261795;61;1448;-90
2021/10/05 08:25:10;270922.00;0.90;467.93;0.00;0.00;0.62;;;;;20.40;1.00;;;;;;2261992;61;1037;-91
2021/10/05 08:27:38;157733.00;0.53;273.13;0.00;0.00;0.62;;;;;20.30;1.00;;;;;;2272276;61;1020;-90
2021/10/05 08:30:09;164330.00;0.55;284.50;0.00;0.00;0.62;;;;;20.40;1.00;;;;;;2272257;61;1081;-91
2021/10/05 08:32:36;238061.00;0.79;411.42;0.00;0.00;0.62;;;;;20.20;1.00;;;;;;2272161;61;1387;-91
2021/10/05 08:35:05;325622.00;1.09;561.96;0.00;0.00;0.62;;;;;20.20;1.00;;;;;;2264994;61;1993;-89
2021/10/05 08:37:32;232257.00;0.77;401.43;0.00;0.00;0.62;;;;;20.00;1.00;;;;;;2265102;61;1033;-89
2021/10/05 08:39:59;189457.00;0.63;327.77;0.00;0.00;0.62;;;;;19.90;1.00;;;;;;2261717;61;1189;-91
2021/10/05 08:42:25;262198.00;0.87;452.93;0.00;0.00;0.62;;;;;19.90;1.00;;;;;;2271844;61;1427;-88
2021/10/05 08:44:53;156044.00;0.52;270.22;0.00;0.00;0.62;;;;;20.20;1.00;;;;;;2261213;61;1249;-88
2021/10/05 08:47:21;108761.00;0.36;188.69;0.00;0.00;0.62;;;;;20.50;1.00;;;;;;2271308;61;1081;-88
2021/10/05 08:49:48;266618.00;0.89;460.53;0.00;0.00;0.62;;;;;20.60;1.00;;;;;;2270962;61;1112;-88
2021/10/05 08:52:16;154140.00;0.51;266.94;0.00;0.00;0.62;;;;;20.70;1.00;;;;;;2261043;61;1466;-88
2021/10/05 08:54:44;196342.00;0.65;339.63;0.00;0.00;0.62;;;;;20.80;1.00;;;;;;2260784;61;2002;-88
2021/10/05 08:57:11;110079.00;0.37;190.97;0.00;0.00;0.62;;;;;21.00;1.00;;;;;;2260858;61;1095;-88
2021/10/05 08:59:38;89311.00;0.30;155.12;0.00;0.00;0.62;;;;;21.00;1.00;;;;;;2260890;61;1074;-88
2021/10/05 09:02:13;116934.00;0.39;202.79;0.00;0.00;0.62;;;;;21.40;1.00;;;;;;2271744;61;1462;-89
2021/10/05 09:04:41;109210.00;0.36;189.47;0.00;0.00;0.62;;;;;21.80;1.00;;;;;;2264942;61;1081;-89
2021/10/05 09:07:20;74808.00;0.25;130.07;0.00;0.00;0.62;;;;;21.60;1.00;;;;;;2259405;61;1000;-89
2021/10/05 09:09:55;98015.00;0.33;170.15;0.00;0.00;0.62;;;;;21.50;1.00;;;;;;2256257;61;1010;-89
2021/10/05 09:12:24;104784.00;0.35;181.83;0.00;0.00;0.62;;;;;21.10;1.00;;;;;;2259526;61;1365;-90
2021/10/05 09:14:51;377703.00;1.26;651.48;0.00;0.00;0.62;;;;;20.90;1.00;;;;;;2259348;61;1922;-90
2021/10/05 09:17:22;101327.00;0.34;175.86;0.00;0.00;0.62;;;;;20.80;1.00;;;;;;2256357;61;987;-90
2021/10/05 09:19:52;253450.00;0.84;437.88;0.00;0.00;0.62;;;;;20.60;1.00;;;;;;2251691;61;1057;-90
2021/10/05 09:22:20;147076.00;0.49;254.77;0.00;0.00;0.62;;;;;20.90;1.00;;;;;;2245050;61;1193;-91
2021/10/05 09:24:49;213030.00;0.71;368.35;0.00;0.00;0.62;;;;;21.10;1.00;;;;;;2254919;61;1038;-89
2021/10/05 09:27:17;303561.00;1.01;524.04;0.00;0.00;0.62;;;;;21.50;1.00;;;;;;2248548;61;938;-90
2021/10/05 09:29:47;396157.00;1.32;683.20;56305.00;0.19;98.09;;;;;21.60;1.00;;;;;;2240526;61;1043;-91
2021/10/05 09:32:18;114879.00;0.38;199.25;0.00;0.00;0.62;;;;;21.50;1.00;;;;;;2236547;61;1320;-91
2021/10/05 09:34:50;168114.00;0.56;291.02;0.00;0.00;0.62;;;;;22.00;1.00;;;;;;2236533;61;1991;-91
2021/10/05 09:37:20;58641.00;0.20;102.13;0.00;0.00;0.62;;;;;22.00;1.00;;;;;;2238532;61;1029;-90
2021/10/05 09:39:49;301346.00;1.00;520.23;0.00;0.00;0.62;;;;;21.90;1.00;;;;;;2244513;61;1014;-89
2021/10/05 09:47:14;594644.00;1.98;1024.97;0.00;0.00;0.62;;;;;21.80;1.00;;;;;;2279507;61;1312;-91
2021/10/05 09:49:45;236189.00;0.79;408.20;0.00;0.00;0.62;;;;;21.80;1.00;;;;;;2270424;61;1112;-89
2021/10/05 09:52:13;281623.00;0.94;486.33;0.00;0.00;0.62;;;;;21.80;1.00;;;;;;2274285;61;1357;-90
2021/10/05 09:54:42;310304.00;1.03;535.63;45695.00;0.15;79.74;;;;;21.90;1.00;;;;;;2272893;61;1982;-91